sensor_id;sensor_type;location;lat;lon;timestamp;temperature;humidity
680;DHT22;322;48.846;9.230;2023-02-01T00:00:13;5.40;99.90
680;DHT22;322;48.846;9.230;2023-02-01T00:02:40;5.40;99.90
680;DHT22;322;48.846;9.230;2023-02-01T00:05:08;5.40;99.90
680;DHT22;322;48.846;9.230;2023-02-01T00:07:35;5.40;99.90
680;DHT22;322;48.846;9.230;2023-02-01T00:10:02;5.40;99.90
680;DHT22;322;48.846;9.230;2023-02-01T00:12:29;5.40;99.90
680;DHT22;322;48.846;9.230;2023-02-01T00:14:57;5.40;99.90
680;DHT22;322;48.846;9.230;2023-02-01T00:17:25;5.30;99.90
680;DHT22;322;48.846;9.230;2023-02-01T00:19:52;5.30;99.90
680;DHT22;322;48.846;9.230;2023-02-01T00:22:18;5.20;99.90
680;DHT22;322;48.846;9.230;2023-02-01T00:24:45;5.20;99.90
680;DHT22;322;48.846;9.230;2023-02-01T00:27:12;5.10;99.90
680;DHT22;322;48.846;9.230;2023-02-01T00:29:43;5.10;99.90
680;DHT22;322;48.846;9.230;2023-02-01T00:32:10;5.10;99.90
680;DHT22;322;48.846;9.230;2023-02-01T00:34:38;5.10;99.90
680;DHT22;322;48.846;9.230;2023-02-01T00:37:05;5.10;99.90
680;DHT22;322;48.846;9.230;2023-02-01T00:39:33;5.00;99.90
680;DHT22;322;48.846;9.230;2023-02-01T00:42:00;5.10;99.90
680;DHT22;322;48.846;9.230;2023-02-01T00:44:27;5.10;99.90
680;DHT22;322;48.846;9.230;2023-02-01T00:46:58;5.10;99.90
680;DHT22;322;48.846;9.230;2023-02-01T00:49:25;5.10;99.90
680;DHT22;322;48.846;9.230;2023-02-01T00:51:53;5.10;99.90
680;DHT22;322;48.846;9.230;2023-02-01T00:54:20;5.00;99.90
680;DHT22;322;48.846;9.230;2023-02-01T00:56:47;5.10;99.90
680;DHT22;322;48.846;9.230;2023-02-01T00:59:14;5.10;99.90
680;DHT22;322;48.846;9.230;2023-02-01T01:01:40;5.20;99.90
680;DHT22;322;48.846;9.230;2023-02-01T01:04:07;5.20;99.90
680;DHT22;322;48.846;9.230;2023-02-01T01:06:34;5.20;99.90
680;DHT22;322;48.846;9.230;2023-02-01T01:09:05;5.10;99.90
680;DHT22;322;48.846;9.230;2023-02-01T01:11:34;5.10;99.90
680;DHT22;322;48.846;9.230;2023-02-01T01:14:01;5.00;99.90
680;DHT22;322;48.846;9.230;2023-02-01T01:16:29;5.00;99.90
680;DHT22;322;48.846;9.230;2023-02-01T01:18:57;5.00;99.90
680;DHT22;322;48.846;9.230;2023-02-01T01:21:25;4.90;99.90
680;DHT22;322;48.846;9.230;2023-02-01T01:23:52;4.90;99.90
680;DHT22;322;48.846;9.230;2023-02-01T01:26:21;5.00;99.90
680;DHT22;322;48.846;9.230;2023-02-01T01:28:49;5.00;99.90
680;DHT22;322;48.846;9.230;2023-02-01T01:31:18;5.10;99.90
680;DHT22;322;48.846;9.230;2023-02-01T01:33:48;5.10;99.90
680;DHT22;322;48.846;9.230;2023-02-01T01:36:15;5.10;99.90
680;DHT22;322;48.846;9.230;2023-02-01T01:38:42;5.20;99.90
680;DHT22;322;48.846;9.230;2023-02-01T01:41:13;5.20;99.90
680;DHT22;322;48.846;9.230;2023-02-01T01:43:56;5.20;99.90
680;DHT22;322;48.846;9.230;2023-02-01T01:46:24;5.30;99.90
680;DHT22;322;48.846;9.230;2023-02-01T01:48:56;5.30;99.90
680;DHT22;322;48.846;9.230;2023-02-01T01:51:26;5.30;99.90
680;DHT22;322;48.846;9.230;2023-02-01T01:54:00;5.40;99.90
680;DHT22;322;48.846;9.230;2023-02-01T01:56:29;5.40;99.90
680;DHT22;322;48.846;9.230;2023-02-01T01:58:58;5.40;99.90
680;DHT22;322;48.846;9.230;2023-02-01T02:01:26;5.50;99.90
680;DHT22;322;48.846;9.230;2023-02-01T02:03:53;5.50;99.90
680;DHT22;322;48.846;9.230;2023-02-01T02:06:31;5.50;99.90
680;DHT22;322;48.846;9.230;2023-02-01T02:09:00;5.50;99.90
680;DHT22;322;48.846;9.230;2023-02-01T02:11:26;5.60;99.90
680;DHT22;322;48.846;9.230;2023-02-01T02:13:55;5.60;99.90
680;DHT22;322;48.846;9.230;2023-02-01T02:16:39;5.60;99.90
680;DHT22;322;48.846;9.230;2023-02-01T02:19:27;5.60;99.90
680;DHT22;322;48.846;9.230;2023-02-01T02:22:12;5.60;99.90
680;DHT22;322;48.846;9.230;2023-02-01T02:25:17;5.60;99.90
680;DHT22;322;48.846;9.230;2023-02-01T02:27:52;5.60;99.90
680;DHT22;322;48.846;9.230;2023-02-01T02:30:44;5.60;99.90
680;DHT22;322;48.846;9.230;2023-02-01T02:33:47;5.60;99.90
680;DHT22;322;48.846;9.230;2023-02-01T02:36:19;5.60;99.90
680;DHT22;322;48.846;9.230;2023-02-01T02:38:54;5.60;99.90
680;DHT22;322;48.846;9.230;2023-02-01T02:41:27;5.50;99.90
680;DHT22;322;48.846;9.230;2023-02-01T02:44:21;5.50;99.90
680;DHT22;322;48.846;9.230;2023-02-01T02:47:13;5.50;99.90
680;DHT22;322;48.846;9.230;2023-02-01T02:49:57;5.50;99.90
680;DHT22;322;48.846;9.230;2023-02-01T02:52:42;5.50;99.90
680;DHT22;322;48.846;9.230;2023-02-01T02:55:29;5.60;99.90
680;DHT22;322;48.846;9.230;2023-02-01T02:57:58;5.60;99.90
680;DHT22;322;48.846;9.230;2023-02-01T03:00:42;5.60;99.90
680;DHT22;322;48.846;9.230;2023-02-01T03:03:28;5.60;99.90
680;DHT22;322;48.846;9.230;2023-02-01T03:06:15;5.60;99.90
680;DHT22;322;48.846;9.230;2023-02-01T03:08:44;5.70;99.90
680;DHT22;322;48.846;9.230;2023-02-01T03:11:13;5.70;99.90
680;DHT22;322;48.846;9.230;2023-02-01T03:13:45;5.70;99.90
680;DHT22;322;48.846;9.230;2023-02-01T03:16:18;5.70;99.90
680;DHT22;322;48.846;9.230;2023-02-01T03:18:54;5.70;99.90
680;DHT22;322;48.846;9.230;2023-02-01T03:21:25;5.70;99.90
680;DHT22;322;48.846;9.230;2023-02-01T03:23:53;5.70;99.90
680;DHT22;322;48.846;9.230;2023-02-01T03:26:22;5.70;99.90
680;DHT22;322;48.846;9.230;2023-02-01T03:28:54;5.60;99.90
680;DHT22;322;48.846;9.230;2023-02-01T03:31:22;5.60;99.90
680;DHT22;322;48.846;9.230;2023-02-01T03:33:50;5.60;99.90
680;DHT22;322;48.846;9.230;2023-02-01T03:36:23;5.60;99.90
680;DHT22;322;48.846;9.230;2023-02-01T03:38:57;5.50;99.90
680;DHT22;322;48.846;9.230;2023-02-01T03:41:30;5.50;99.90
680;DHT22;322;48.846;9.230;2023-02-01T03:44:02;5.50;99.90
680;DHT22;322;48.846;9.230;2023-02-01T03:46:33;5.40;99.90
680;DHT22;322;48.846;9.230;2023-02-01T03:49:03;5.50;99.90
680;DHT22;322;48.846;9.230;2023-02-01T03:51:32;5.40;99.90
680;DHT22;322;48.846;9.230;2023-02-01T03:54:02;5.50;99.90
680;DHT22;322;48.846;9.230;2023-02-01T03:56:30;5.50;99.90
680;DHT22;322;48.846;9.230;2023-02-01T03:58:57;5.50;99.90
680;DHT22;322;48.846;9.230;2023-02-01T04:01:26;5.50;99.90
680;DHT22;322;48.846;9.230;2023-02-01T04:03:53;5.50;99.90
680;DHT22;322;48.846;9.230;2023-02-01T04:06:20;5.50;99.90
680;DHT22;322;48.846;9.230;2023-02-01T04:08:47;5.50;99.90
680;DHT22;322;48.846;9.230;2023-02-01T04:11:15;5.50;99.90
680;DHT22;322;48.846;9.230;2023-02-01T04:13:42;5.50;99.90
680;DHT22;322;48.846;9.230;2023-02-01T04:16:09;5.50;99.90
680;DHT22;322;48.846;9.230;2023-02-01T04:18:36;5.60;99.90
680;DHT22;322;48.846;9.230;2023-02-01T04:21:03;5.50;99.90
680;DHT22;322;48.846;9.230;2023-02-01T04:23:30;5.50;99.90
680;DHT22;322;48.846;9.230;2023-02-01T04:25:59;5.40;99.90
680;DHT22;322;48.846;9.230;2023-02-01T04:28:28;5.40;99.90
680;DHT22;322;48.846;9.230;2023-02-01T04:30:55;5.30;99.90
680;DHT22;322;48.846;9.230;2023-02-01T04:33:22;5.20;99.90
680;DHT22;322;48.846;9.230;2023-02-01T04:35:48;5.20;99.90
680;DHT22;322;48.846;9.230;2023-02-01T04:38:15;5.20;99.90
680;DHT22;322;48.846;9.230;2023-02-01T04:40:42;5.20;99.90
680;DHT22;322;48.846;9.230;2023-02-01T04:43:09;5.30;99.90
680;DHT22;322;48.846;9.230;2023-02-01T04:45:37;5.30;99.90
680;DHT22;322;48.846;9.230;2023-02-01T04:48:04;5.30;99.90
680;DHT22;322;48.846;9.230;2023-02-01T04:50:31;5.20;99.90
680;DHT22;322;48.846;9.230;2023-02-01T04:52:57;5.30;99.90
680;DHT22;322;48.846;9.230;2023-02-01T04:55:24;5.30;99.90
680;DHT22;322;48.846;9.230;2023-02-01T04:57:51;5.40;99.90
680;DHT22;322;48.846;9.230;2023-02-01T05:00:18;5.40;99.90
680;DHT22;322;48.846;9.230;2023-02-01T05:02:46;5.40;99.90
680;DHT22;322;48.846;9.230;2023-02-01T05:05:13;5.50;99.90
680;DHT22;322;48.846;9.230;2023-02-01T05:07:40;5.40;99.90
680;DHT22;322;48.846;9.230;2023-02-01T05:10:08;5.30;99.90
680;DHT22;322;48.846;9.230;2023-02-01T05:12:35;5.30;99.90
680;DHT22;322;48.846;9.230;2023-02-01T05:15:19;5.30;99.90
680;DHT22;322;48.846;9.230;2023-02-01T05:17:47;5.30;99.90
680;DHT22;322;48.846;9.230;2023-02-01T05:20:14;5.40;99.90
680;DHT22;322;48.846;9.230;2023-02-01T05:22:41;5.50;99.90
680;DHT22;322;48.846;9.230;2023-02-01T05:25:08;5.60;99.90
680;DHT22;322;48.846;9.230;2023-02-01T05:27:35;5.60;99.90
680;DHT22;322;48.846;9.230;2023-02-01T05:30:02;5.70;99.90
680;DHT22;322;48.846;9.230;2023-02-01T05:32:29;5.70;99.90
680;DHT22;322;48.846;9.230;2023-02-01T05:34:57;5.80;99.90
680;DHT22;322;48.846;9.230;2023-02-01T05:37:24;5.80;99.90
680;DHT22;322;48.846;9.230;2023-02-01T05:39:51;5.80;99.90
680;DHT22;322;48.846;9.230;2023-02-01T05:42:18;5.80;99.90
680;DHT22;322;48.846;9.230;2023-02-01T05:44:45;5.80;99.90
680;DHT22;322;48.846;9.230;2023-02-01T05:47:11;5.80;99.90
680;DHT22;322;48.846;9.230;2023-02-01T05:49:38;5.80;99.90
680;DHT22;322;48.846;9.230;2023-02-01T05:52:07;5.80;99.90
680;DHT22;322;48.846;9.230;2023-02-01T05:54:34;5.80;99.90
680;DHT22;322;48.846;9.230;2023-02-01T05:57:00;5.80;99.90
680;DHT22;322;48.846;9.230;2023-02-01T05:59:27;5.80;99.90
680;DHT22;322;48.846;9.230;2023-02-01T06:01:54;5.80;99.90
680;DHT22;322;48.846;9.230;2023-02-01T06:04:21;5.70;99.90
680;DHT22;322;48.846;9.230;2023-02-01T06:06:48;5.70;99.90
680;DHT22;322;48.846;9.230;2023-02-01T06:09:17;5.70;99.90
680;DHT22;322;48.846;9.230;2023-02-01T06:11:44;5.70;99.90
680;DHT22;322;48.846;9.230;2023-02-01T06:14:10;5.70;99.90
680;DHT22;322;48.846;9.230;2023-02-01T06:16:37;5.80;99.90
680;DHT22;322;48.846;9.230;2023-02-01T06:19:04;5.80;99.90
680;DHT22;322;48.846;9.230;2023-02-01T06:21:31;5.80;99.90
680;DHT22;322;48.846;9.230;2023-02-01T06:24:06;5.80;99.90
680;DHT22;322;48.846;9.230;2023-02-01T06:26:48;5.90;99.90
680;DHT22;322;48.846;9.230;2023-02-01T06:29:15;5.90;99.90
680;DHT22;322;48.846;9.230;2023-02-01T06:31:42;5.90;99.90
680;DHT22;322;48.846;9.230;2023-02-01T06:34:09;5.90;99.90
680;DHT22;322;48.846;9.230;2023-02-01T06:36:35;5.90;99.90
680;DHT22;322;48.846;9.230;2023-02-01T06:39:02;6.00;99.90
680;DHT22;322;48.846;9.230;2023-02-01T06:41:29;6.00;99.90
680;DHT22;322;48.846;9.230;2023-02-01T06:43:57;6.00;99.90
680;DHT22;322;48.846;9.230;2023-02-01T06:46:24;6.10;99.90
680;DHT22;322;48.846;9.230;2023-02-01T06:48:50;6.00;99.90
680;DHT22;322;48.846;9.230;2023-02-01T06:51:22;6.00;99.90
680;DHT22;322;48.846;9.230;2023-02-01T06:53:49;6.10;99.90
680;DHT22;322;48.846;9.230;2023-02-01T06:56:17;6.10;99.90
680;DHT22;322;48.846;9.230;2023-02-01T06:58:44;6.20;99.90
680;DHT22;322;48.846;9.230;2023-02-01T07:01:12;6.20;99.90
680;DHT22;322;48.846;9.230;2023-02-01T07:03:39;6.30;99.90
680;DHT22;322;48.846;9.230;2023-02-01T07:06:06;6.30;99.90
680;DHT22;322;48.846;9.230;2023-02-01T07:08:35;6.40;99.90
680;DHT22;322;48.846;9.230;2023-02-01T07:11:03;6.40;99.90
680;DHT22;322;48.846;9.230;2023-02-01T07:13:30;6.50;99.90
680;DHT22;322;48.846;9.230;2023-02-01T07:16:00;6.50;99.90
680;DHT22;322;48.846;9.230;2023-02-01T07:18:30;6.50;99.90
680;DHT22;322;48.846;9.230;2023-02-01T07:20:58;6.60;99.90
680;DHT22;322;48.846;9.230;2023-02-01T07:23:26;6.60;99.90
680;DHT22;322;48.846;9.230;2023-02-01T07:25:53;6.60;99.90
680;DHT22;322;48.846;9.230;2023-02-01T07:28:20;6.70;99.90
680;DHT22;322;48.846;9.230;2023-02-01T07:30:47;6.70;99.90
680;DHT22;322;48.846;9.230;2023-02-01T07:33:17;6.70;99.90
680;DHT22;322;48.846;9.230;2023-02-01T07:35:45;6.70;99.90
680;DHT22;322;48.846;9.230;2023-02-01T07:38:12;6.80;99.90
680;DHT22;322;48.846;9.230;2023-02-01T07:40:40;6.70;99.90
680;DHT22;322;48.846;9.230;2023-02-01T07:43:07;6.80;99.90
680;DHT22;322;48.846;9.230;2023-02-01T07:45:35;6.80;99.90
680;DHT22;322;48.846;9.230;2023-02-01T07:48:02;6.80;99.90
680;DHT22;322;48.846;9.230;2023-02-01T07:50:29;6.80;99.90
680;DHT22;322;48.846;9.230;2023-02-01T07:52:59;6.80;99.90
680;DHT22;322;48.846;9.230;2023-02-01T07:55:26;6.90;99.90
680;DHT22;322;48.846;9.230;2023-02-01T07:57:56;6.90;99.90
680;DHT22;322;48.846;9.230;2023-02-01T08:00:23;6.90;99.90
680;DHT22;322;48.846;9.230;2023-02-01T08:03:08;6.90;99.90
680;DHT22;322;48.846;9.230;2023-02-01T08:05:34;6.90;99.90
680;DHT22;322;48.846;9.230;2023-02-01T08:08:04;6.90;99.90
680;DHT22;322;48.846;9.230;2023-02-01T08:10:30;6.90;99.90
680;DHT22;322;48.846;9.230;2023-02-01T08:12:58;6.90;99.90
680;DHT22;322;48.846;9.230;2023-02-01T08:15:26;7.00;99.90
680;DHT22;322;48.846;9.230;2023-02-01T08:17:53;7.00;99.90
680;DHT22;322;48.846;9.230;2023-02-01T08:20:21;7.10;99.90
680;DHT22;322;48.846;9.230;2023-02-01T08:22:49;7.10;99.90
680;DHT22;322;48.846;9.230;2023-02-01T08:25:17;7.10;99.90
680;DHT22;322;48.846;9.230;2023-02-01T08:27:44;7.20;99.90
680;DHT22;322;48.846;9.230;2023-02-01T08:30:11;7.30;99.90
680;DHT22;322;48.846;9.230;2023-02-01T08:32:38;7.40;99.90
680;DHT22;322;48.846;9.230;2023-02-01T08:35:06;7.40;99.90
680;DHT22;322;48.846;9.230;2023-02-01T08:37:33;7.40;99.90
680;DHT22;322;48.846;9.230;2023-02-01T08:40:00;7.50;99.90
680;DHT22;322;48.846;9.230;2023-02-01T08:42:28;7.50;99.90
680;DHT22;322;48.846;9.230;2023-02-01T08:45:12;7.60;99.90
680;DHT22;322;48.846;9.230;2023-02-01T08:47:39;7.60;99.90
680;DHT22;322;48.846;9.230;2023-02-01T08:50:07;7.60;99.90
680;DHT22;322;48.846;9.230;2023-02-01T08:52:34;7.60;99.90
680;DHT22;322;48.846;9.230;2023-02-01T08:55:01;7.60;99.90
680;DHT22;322;48.846;9.230;2023-02-01T08:57:29;7.60;99.90
680;DHT22;322;48.846;9.230;2023-02-01T08:59:56;7.50;99.90
680;DHT22;322;48.846;9.230;2023-02-01T09:02:23;7.50;99.90
680;DHT22;322;48.846;9.230;2023-02-01T09:04:50;7.50;99.90
680;DHT22;322;48.846;9.230;2023-02-01T09:07:17;7.40;99.90
680;DHT22;322;48.846;9.230;2023-02-01T09:09:44;7.40;99.90
680;DHT22;322;48.846;9.230;2023-02-01T09:12:11;7.30;99.90
680;DHT22;322;48.846;9.230;2023-02-01T09:14:39;7.30;99.90
680;DHT22;322;48.846;9.230;2023-02-01T09:17:06;7.30;99.90
680;DHT22;322;48.846;9.230;2023-02-01T09:19:33;7.20;99.90
680;DHT22;322;48.846;9.230;2023-02-01T09:22:00;7.20;99.90
680;DHT22;322;48.846;9.230;2023-02-01T09:24:26;7.10;99.90
680;DHT22;322;48.846;9.230;2023-02-01T09:26:54;7.00;99.90
680;DHT22;322;48.846;9.230;2023-02-01T09:29:20;7.00;99.90
680;DHT22;322;48.846;9.230;2023-02-01T09:31:48;7.00;99.90
680;DHT22;322;48.846;9.230;2023-02-01T09:34:15;7.10;99.90
680;DHT22;322;48.846;9.230;2023-02-01T09:36:42;7.40;99.90
680;DHT22;322;48.846;9.230;2023-02-01T09:39:09;7.60;99.90
680;DHT22;322;48.846;9.230;2023-02-01T09:41:42;7.70;99.90
680;DHT22;322;48.846;9.230;2023-02-01T09:44:21;7.60;99.90
680;DHT22;322;48.846;9.230;2023-02-01T09:46:56;7.60;99.90
680;DHT22;322;48.846;9.230;2023-02-01T09:49:28;7.50;99.90
680;DHT22;322;48.846;9.230;2023-02-01T09:51:56;7.60;99.90
680;DHT22;322;48.846;9.230;2023-02-01T09:54:26;7.50;99.90
680;DHT22;322;48.846;9.230;2023-02-01T09:56:56;7.50;99.90
680;DHT22;322;48.846;9.230;2023-02-01T09:59:31;7.50;99.90
680;DHT22;322;48.846;9.230;2023-02-01T10:02:03;7.60;99.90
680;DHT22;322;48.846;9.230;2023-02-01T10:04:31;7.70;99.90
680;DHT22;322;48.846;9.230;2023-02-01T10:07:06;7.70;99.90
680;DHT22;322;48.846;9.230;2023-02-01T10:09:47;7.70;99.90
680;DHT22;322;48.846;9.230;2023-02-01T10:15:24;7.60;99.90
680;DHT22;322;48.846;9.230;2023-02-01T10:18:14;7.60;99.90
680;DHT22;322;48.846;9.230;2023-02-01T10:20:56;7.60;99.90
680;DHT22;322;48.846;9.230;2023-02-01T10:23:54;7.60;99.90
680;DHT22;322;48.846;9.230;2023-02-01T10:26:29;7.60;99.90
680;DHT22;322;48.846;9.230;2023-02-01T10:29:00;7.60;99.90
680;DHT22;322;48.846;9.230;2023-02-01T10:31:30;7.80;99.90
680;DHT22;322;48.846;9.230;2023-02-01T10:34:00;7.90;99.90
680;DHT22;322;48.846;9.230;2023-02-01T10:36:32;7.90;99.90
680;DHT22;322;48.846;9.230;2023-02-01T10:39:03;7.80;99.90
680;DHT22;322;48.846;9.230;2023-02-01T10:41:34;7.80;99.90
680;DHT22;322;48.846;9.230;2023-02-01T10:44:07;7.80;99.90
680;DHT22;322;48.846;9.230;2023-02-01T10:46:37;7.80;99.90
680;DHT22;322;48.846;9.230;2023-02-01T10:49:08;7.70;99.90
680;DHT22;322;48.846;9.230;2023-02-01T10:51:43;7.80;99.90
680;DHT22;322;48.846;9.230;2023-02-01T10:54:17;7.80;99.90
680;DHT22;322;48.846;9.230;2023-02-01T10:56:46;7.80;99.90
680;DHT22;322;48.846;9.230;2023-02-01T10:59:18;7.80;99.90
680;DHT22;322;48.846;9.230;2023-02-01T11:01:47;7.80;99.90
680;DHT22;322;48.846;9.230;2023-02-01T11:04:17;7.80;99.90
680;DHT22;322;48.846;9.230;2023-02-01T11:06:46;7.80;99.90
680;DHT22;322;48.846;9.230;2023-02-01T11:09:18;7.80;99.90
680;DHT22;322;48.846;9.230;2023-02-01T11:11:57;7.80;99.90
680;DHT22;322;48.846;9.230;2023-02-01T11:14:34;7.80;99.90
680;DHT22;322;48.846;9.230;2023-02-01T11:17:17;7.90;99.90
680;DHT22;322;48.846;9.230;2023-02-01T11:19:58;7.90;99.90
680;DHT22;322;48.846;9.230;2023-02-01T11:22:29;7.80;99.90
680;DHT22;322;48.846;9.230;2023-02-01T11:24:56;7.80;99.90
680;DHT22;322;48.846;9.230;2023-02-01T11:27:28;7.80;99.90
680;DHT22;322;48.846;9.230;2023-02-01T11:30:01;7.80;99.90
680;DHT22;322;48.846;9.230;2023-02-01T11:32:30;7.70;99.90
680;DHT22;322;48.846;9.230;2023-02-01T11:35:02;7.70;99.90
680;DHT22;322;48.846;9.230;2023-02-01T11:37:37;7.70;99.90
680;DHT22;322;48.846;9.230;2023-02-01T11:40:25;7.80;99.90
680;DHT22;322;48.846;9.230;2023-02-01T11:42:56;7.80;99.90
680;DHT22;322;48.846;9.230;2023-02-01T11:45:30;7.80;99.90
680;DHT22;322;48.846;9.230;2023-02-01T11:48:03;7.80;99.90
680;DHT22;322;48.846;9.230;2023-02-01T11:50:44;7.80;99.90
680;DHT22;322;48.846;9.230;2023-02-01T11:53:23;7.80;99.90
680;DHT22;322;48.846;9.230;2023-02-01T11:56:09;7.80;99.90
680;DHT22;322;48.846;9.230;2023-02-01T11:59:15;7.80;99.90
680;DHT22;322;48.846;9.230;2023-02-01T12:02:02;7.80;99.90
680;DHT22;322;48.846;9.230;2023-02-01T12:05:00;7.90;99.90
680;DHT22;322;48.846;9.230;2023-02-01T12:10:38;8.10;99.90
680;DHT22;322;48.846;9.230;2023-02-01T12:13:17;8.00;99.90
680;DHT22;322;48.846;9.230;2023-02-01T12:15:59;8.00;99.90
680;DHT22;322;48.846;9.230;2023-02-01T12:18:55;7.90;99.90
680;DHT22;322;48.846;9.230;2023-02-01T12:21:42;7.80;99.90
680;DHT22;322;48.846;9.230;2023-02-01T12:24:39;7.70;99.90
680;DHT22;322;48.846;9.230;2023-02-01T12:27:24;7.70;99.90
680;DHT22;322;48.846;9.230;2023-02-01T12:30:02;7.60;99.90
680;DHT22;322;48.846;9.230;2023-02-01T12:32:48;7.60;99.90
680;DHT22;322;48.846;9.230;2023-02-01T12:35:38;7.70;99.90
680;DHT22;322;48.846;9.230;2023-02-01T12:38:26;7.70;99.90
680;DHT22;322;48.846;9.230;2023-02-01T12:41:06;7.70;99.90
680;DHT22;322;48.846;9.230;2023-02-01T12:43:38;7.70;99.90
680;DHT22;322;48.846;9.230;2023-02-01T12:46:10;7.70;99.90
680;DHT22;322;48.846;9.230;2023-02-01T12:48:41;7.60;99.90
680;DHT22;322;48.846;9.230;2023-02-01T12:51:12;7.50;99.90
680;DHT22;322;48.846;9.230;2023-02-01T12:53:46;7.50;99.90
680;DHT22;322;48.846;9.230;2023-02-01T12:56:21;7.40;99.90
680;DHT22;322;48.846;9.230;2023-02-01T12:58:52;7.40;99.90
680;DHT22;322;48.846;9.230;2023-02-01T13:01:22;7.40;99.90
680;DHT22;322;48.846;9.230;2023-02-01T13:03:56;7.40;99.90
680;DHT22;322;48.846;9.230;2023-02-01T13:06:29;7.30;99.90
680;DHT22;322;48.846;9.230;2023-02-01T13:09:03;7.10;99.90
680;DHT22;322;48.846;9.230;2023-02-01T13:11:33;6.80;99.90
680;DHT22;322;48.846;9.230;2023-02-01T13:14:05;6.70;99.90
680;DHT22;322;48.846;9.230;2023-02-01T13:16:37;6.70;99.90
680;DHT22;322;48.846;9.230;2023-02-01T13:19:12;6.70;99.90
680;DHT22;322;48.846;9.230;2023-02-01T13:21:45;6.80;99.90
680;DHT22;322;48.846;9.230;2023-02-01T13:24:24;6.90;99.90
680;DHT22;322;48.846;9.230;2023-02-01T13:26:53;7.10;99.90
680;DHT22;322;48.846;9.230;2023-02-01T13:29:23;7.20;99.90
680;DHT22;322;48.846;9.230;2023-02-01T13:32:19;7.30;99.90
680;DHT22;322;48.846;9.230;2023-02-01T13:35:15;7.40;99.90
680;DHT22;322;48.846;9.230;2023-02-01T13:37:59;7.40;99.90
680;DHT22;322;48.846;9.230;2023-02-01T13:40:37;7.40;99.90
680;DHT22;322;48.846;9.230;2023-02-01T13:43:10;7.40;99.90
680;DHT22;322;48.846;9.230;2023-02-01T13:45:44;7.40;99.90
680;DHT22;322;48.846;9.230;2023-02-01T13:48:18;7.40;99.90
680;DHT22;322;48.846;9.230;2023-02-01T13:50:51;7.50;99.90
680;DHT22;322;48.846;9.230;2023-02-01T13:53:23;7.50;99.90
680;DHT22;322;48.846;9.230;2023-02-01T13:55:57;7.60;99.90
680;DHT22;322;48.846;9.230;2023-02-01T13:58:31;7.60;99.90
680;DHT22;322;48.846;9.230;2023-02-01T14:07:18;7.50;99.90
680;DHT22;322;48.846;9.230;2023-02-01T14:09:45;7.40;99.90
680;DHT22;322;48.846;9.230;2023-02-01T14:12:44;7.50;99.90
680;DHT22;322;48.846;9.230;2023-02-01T14:15:24;7.60;99.90
680;DHT22;322;48.846;9.230;2023-02-01T14:17:51;7.60;99.90
680;DHT22;322;48.846;9.230;2023-02-01T14:20:46;7.50;99.90
680;DHT22;322;48.846;9.230;2023-02-01T14:23:22;7.40;99.90
680;DHT22;322;48.846;9.230;2023-02-01T14:26:20;7.40;99.90
680;DHT22;322;48.846;9.230;2023-02-01T14:28:56;7.40;99.90
680;DHT22;322;48.846;9.230;2023-02-01T14:31:37;7.40;99.90
680;DHT22;322;48.846;9.230;2023-02-01T14:34:13;7.40;99.90
680;DHT22;322;48.846;9.230;2023-02-01T14:36:45;7.40;99.90
680;DHT22;322;48.846;9.230;2023-02-01T14:39:30;7.30;99.90
680;DHT22;322;48.846;9.230;2023-02-01T14:42:01;7.40;99.90
680;DHT22;322;48.846;9.230;2023-02-01T14:44:34;7.50;99.90
680;DHT22;322;48.846;9.230;2023-02-01T14:47:29;7.50;99.90
680;DHT22;322;48.846;9.230;2023-02-01T14:53:06;7.60;99.90
680;DHT22;322;48.846;9.230;2023-02-01T14:55:42;7.60;99.90
680;DHT22;322;48.846;9.230;2023-02-01T14:58:16;7.50;99.90
680;DHT22;322;48.846;9.230;2023-02-01T15:00:50;7.40;99.90
680;DHT22;322;48.846;9.230;2023-02-01T15:03:41;7.30;99.90
680;DHT22;322;48.846;9.230;2023-02-01T15:06:22;7.30;99.90
680;DHT22;322;48.846;9.230;2023-02-01T15:08:53;7.30;99.90
680;DHT22;322;48.846;9.230;2023-02-01T15:11:22;7.20;99.90
680;DHT22;322;48.846;9.230;2023-02-01T15:13:50;7.20;99.90
680;DHT22;322;48.846;9.230;2023-02-01T15:16:19;7.20;99.90
680;DHT22;322;48.846;9.230;2023-02-01T15:18:47;7.20;99.90
680;DHT22;322;48.846;9.230;2023-02-01T15:21:17;7.20;99.90
680;DHT22;322;48.846;9.230;2023-02-01T15:23:44;7.30;99.90
680;DHT22;322;48.846;9.230;2023-02-01T15:26:26;7.20;99.90
680;DHT22;322;48.846;9.230;2023-02-01T15:28:53;7.20;99.90
680;DHT22;322;48.846;9.230;2023-02-01T15:31:32;7.20;99.90
680;DHT22;322;48.846;9.230;2023-02-01T15:33:59;7.20;99.90
680;DHT22;322;48.846;9.230;2023-02-01T15:36:26;7.20;99.90
680;DHT22;322;48.846;9.230;2023-02-01T15:39:13;7.30;99.90
680;DHT22;322;48.846;9.230;2023-02-01T15:41:46;7.30;99.90
680;DHT22;322;48.846;9.230;2023-02-01T15:44:32;7.30;99.90
680;DHT22;322;48.846;9.230;2023-02-01T15:47:04;7.30;99.90
680;DHT22;322;48.846;9.230;2023-02-01T15:49:37;7.30;99.90
680;DHT22;322;48.846;9.230;2023-02-01T15:52:22;7.30;99.90
680;DHT22;322;48.846;9.230;2023-02-01T15:54:53;7.30;99.90
680;DHT22;322;48.846;9.230;2023-02-01T15:57:24;7.30;99.90
680;DHT22;322;48.846;9.230;2023-02-01T15:59:57;7.30;99.90
680;DHT22;322;48.846;9.230;2023-02-01T16:02:29;7.30;99.90
680;DHT22;322;48.846;9.230;2023-02-01T16:04:59;7.30;99.90
680;DHT22;322;48.846;9.230;2023-02-01T16:07:28;7.30;99.90
680;DHT22;322;48.846;9.230;2023-02-01T16:09:57;7.30;99.90
680;DHT22;322;48.846;9.230;2023-02-01T16:12:29;7.30;99.90
680;DHT22;322;48.846;9.230;2023-02-01T16:14:57;7.30;99.90
680;DHT22;322;48.846;9.230;2023-02-01T16:17:24;7.30;99.90
680;DHT22;322;48.846;9.230;2023-02-01T16:19:51;7.30;99.90
680;DHT22;322;48.846;9.230;2023-02-01T16:22:18;7.30;99.90
680;DHT22;322;48.846;9.230;2023-02-01T16:24:45;7.30;99.90
680;DHT22;322;48.846;9.230;2023-02-01T16:27:12;7.30;99.90
680;DHT22;322;48.846;9.230;2023-02-01T16:29:40;7.30;99.90
680;DHT22;322;48.846;9.230;2023-02-01T16:32:13;7.30;99.90
680;DHT22;322;48.846;9.230;2023-02-01T16:34:41;7.30;99.90
680;DHT22;322;48.846;9.230;2023-02-01T16:37:11;7.30;99.90
680;DHT22;322;48.846;9.230;2023-02-01T16:39:38;7.30;99.90
680;DHT22;322;48.846;9.230;2023-02-01T16:42:10;7.30;99.90
680;DHT22;322;48.846;9.230;2023-02-01T16:44:37;7.30;99.90
680;DHT22;322;48.846;9.230;2023-02-01T16:47:12;7.30;99.90
680;DHT22;322;48.846;9.230;2023-02-01T16:49:41;7.20;99.90
680;DHT22;322;48.846;9.230;2023-02-01T16:52:13;7.30;99.90
680;DHT22;322;48.846;9.230;2023-02-01T16:54:41;7.30;99.90
680;DHT22;322;48.846;9.230;2023-02-01T16:57:11;7.20;99.90
680;DHT22;322;48.846;9.230;2023-02-01T16:59:39;7.20;99.90
680;DHT22;322;48.846;9.230;2023-02-01T17:02:10;7.20;99.90
680;DHT22;322;48.846;9.230;2023-02-01T17:04:37;7.10;99.90
680;DHT22;322;48.846;9.230;2023-02-01T17:07:05;7.10;99.90
680;DHT22;322;48.846;9.230;2023-02-01T17:09:35;7.20;99.90
680;DHT22;322;48.846;9.230;2023-02-01T17:12:02;7.20;99.90
680;DHT22;322;48.846;9.230;2023-02-01T17:14:31;7.20;99.90
680;DHT22;322;48.846;9.230;2023-02-01T17:16:59;7.20;99.90
680;DHT22;322;48.846;9.230;2023-02-01T17:19:27;7.20;99.90
680;DHT22;322;48.846;9.230;2023-02-01T17:21:55;7.20;99.90
680;DHT22;322;48.846;9.230;2023-02-01T17:24:26;7.20;99.90
680;DHT22;322;48.846;9.230;2023-02-01T17:26:53;7.20;99.90
680;DHT22;322;48.846;9.230;2023-02-01T17:29:20;7.20;99.90
680;DHT22;322;48.846;9.230;2023-02-01T17:31:49;7.20;99.90
680;DHT22;322;48.846;9.230;2023-02-01T17:34:16;7.30;99.90
680;DHT22;322;48.846;9.230;2023-02-01T17:36:46;7.30;99.90